createdAt,value
2023-02-02T00:01:47.864Z,9.38
2023-02-02T00:04:18.885Z,9.60
2023-02-02T00:06:47.343Z,9.93
2023-02-02T00:09:20.061Z,9.73
2023-02-02T00:11:50.438Z,7.90
2023-02-02T00:14:19.210Z,9.50
2023-02-02T00:16:52.440Z,8.07
2023-02-02T00:19:22.566Z,8.77
2023-02-02T00:21:50.947Z,7.95
2023-02-02T00:24:21.421Z,8.50
2023-02-02T00:26:51.668Z,8.70
2023-02-02T00:29:22.688Z,8.13
2023-02-02T00:31:52.227Z,8.95
2023-02-02T00:34:21.053Z,8.73
2023-02-02T00:36:50.465Z,9.25
2023-02-02T00:39:21.883Z,9.15
2023-02-02T00:41:52.229Z,9.30
2023-02-02T00:44:37.769Z,7.72
2023-02-02T00:47:06.460Z,9.95
2023-02-02T00:49:35.309Z,9.65
2023-02-02T00:52:04.069Z,8.60
2023-02-02T00:54:33.907Z,10.55
2023-02-02T00:57:29.656Z,9.07
2023-02-02T01:00:06.945Z,9.63
2023-02-02T01:02:36.119Z,8.95
2023-02-02T01:05:15.280Z,8.63
2023-02-02T01:07:58.355Z,9.55
2023-02-02T01:10:28.303Z,9.05
2023-02-02T01:12:56.725Z,8.70
2023-02-02T01:15:25.333Z,8.38
2023-02-02T01:17:53.903Z,8.48
2023-02-02T01:20:23.055Z,8.32
2023-02-02T01:22:53.103Z,8.25
2023-02-02T01:25:21.898Z,8.13
2023-02-02T01:27:51.816Z,6.95
2023-02-02T01:30:20.257Z,7.95
2023-02-02T01:32:48.584Z,7.68
2023-02-02T01:35:17.287Z,7.60
2023-02-02T01:37:45.629Z,7.43
2023-02-02T01:40:14.991Z,8.20
2023-02-02T01:42:43.591Z,8.32
2023-02-02T01:45:23.135Z,8.35
2023-02-02T01:47:55.527Z,8.02
2023-02-02T01:50:30.883Z,7.10
2023-02-02T01:53:01.835Z,8.30
2023-02-02T01:55:32.490Z,9.20
2023-02-02T01:58:04.747Z,7.78
2023-02-02T02:00:34.667Z,7.45
2023-02-02T02:03:08.135Z,8.50
2023-02-02T02:05:42.142Z,9.00
2023-02-02T02:08:16.238Z,9.45
2023-02-02T02:10:44.621Z,9.50
2023-02-02T02:13:13.957Z,7.88
2023-02-02T02:16:20.511Z,9.15
2023-02-02T02:18:59.466Z,8.77
2023-02-02T02:21:56.916Z,8.20
2023-02-02T02:25:27.116Z,8.18
2023-02-02T02:28:22.912Z,7.57
2023-02-02T02:31:34.111Z,6.63
2023-02-02T02:34:11.233Z,7.15
2023-02-02T02:36:49.523Z,6.53
2023-02-02T02:39:22.351Z,6.55
2023-02-02T02:41:55.349Z,5.50
2023-02-02T02:44:25.431Z,4.88
2023-02-02T02:46:54.785Z,4.80
2023-02-02T02:49:24.950Z,5.50
2023-02-02T02:51:54.897Z,5.72
2023-02-02T02:54:34.023Z,5.22
2023-02-02T02:57:40.887Z,5.75
2023-02-02T03:00:24.528Z,5.25
2023-02-02T03:03:00.748Z,5.07
2023-02-02T03:05:43.967Z,6.00
2023-02-02T03:08:16.884Z,6.13
2023-02-02T03:10:47.498Z,5.05
2023-02-02T03:13:17.661Z,6.28
2023-02-02T03:15:47.382Z,6.55
2023-02-02T03:18:21.057Z,6.57
2023-02-02T03:20:51.344Z,6.90
2023-02-02T03:23:19.814Z,6.75
2023-02-02T03:25:48.426Z,6.15
2023-02-02T03:28:17.703Z,7.45
2023-02-02T03:30:48.780Z,7.03
2023-02-02T03:33:18.673Z,6.78
2023-02-02T03:35:47.918Z,7.20
2023-02-02T03:38:17.931Z,7.07
2023-02-02T03:40:46.269Z,6.43
2023-02-02T03:43:14.803Z,7.45
2023-02-02T03:45:43.303Z,7.68
2023-02-02T03:48:11.757Z,6.72
2023-02-02T03:50:41.496Z,7.55
2023-02-02T03:53:10.156Z,7.32
2023-02-02T03:55:40.679Z,6.93
2023-02-02T03:58:13.955Z,7.47
2023-02-02T04:00:42.346Z,6.50
2023-02-02T04:03:12.113Z,7.50
2023-02-02T04:05:40.585Z,6.97
2023-02-02T04:08:14.201Z,7.63
2023-02-02T04:10:45.735Z,7.00
2023-02-02T04:13:14.453Z,6.43
2023-02-02T04:15:42.984Z,7.07
2023-02-02T04:18:17.835Z,6.50
2023-02-02T04:20:46.704Z,7.20
2023-02-02T04:23:15.274Z,6.22
2023-02-02T04:25:52.010Z,6.22
2023-02-02T04:28:21.171Z,6.22
2023-02-02T04:30:55.685Z,6.68
2023-02-02T04:33:25.623Z,7.05
2023-02-02T04:35:55.369Z,6.05
2023-02-02T04:38:23.655Z,6.22
2023-02-02T04:40:53.980Z,5.43
2023-02-02T04:43:22.434Z,5.97
2023-02-02T04:45:56.689Z,6.82
2023-02-02T04:48:25.273Z,5.85
2023-02-02T04:50:59.958Z,5.88
2023-02-02T04:53:32.360Z,5.53
2023-02-02T04:56:09.829Z,5.57
2023-02-02T04:58:40.780Z,7.47
2023-02-02T05:01:13.685Z,5.70
2023-02-02T05:03:42.287Z,7.00
2023-02-02T05:06:11.405Z,5.82
2023-02-02T05:08:43.519Z,6.10
2023-02-02T05:11:21.287Z,5.70
2023-02-02T05:13:53.811Z,6.10
2023-02-02T05:16:28.788Z,6.18
2023-02-02T05:18:59.557Z,7.18
2023-02-02T05:21:30.844Z,6.35
2023-02-02T05:23:59.744Z,6.68
2023-02-02T05:26:29.560Z,6.50
2023-02-02T05:28:58.482Z,5.85
2023-02-02T05:31:27.356Z,5.97
2023-02-02T05:33:55.801Z,5.72
2023-02-02T05:36:24.040Z,5.72
2023-02-02T05:38:54.761Z,6.05
2023-02-02T05:41:23.297Z,6.55
2023-02-02T05:43:53.144Z,6.43
2023-02-02T05:46:21.556Z,5.53
2023-02-02T05:48:49.981Z,6.22
2023-02-02T05:51:21.581Z,5.10
2023-02-02T05:53:50.003Z,5.05
2023-02-02T05:56:18.617Z,5.22
2023-02-02T05:58:49.924Z,6.35
2023-02-02T06:01:21.456Z,5.38
2023-02-02T06:03:50.084Z,4.95
2023-02-02T06:06:18.658Z,4.97
2023-02-02T06:08:47.055Z,4.75
2023-02-02T06:11:17.472Z,5.50
2023-02-02T06:13:47.087Z,4.90
2023-02-02T06:16:15.834Z,5.90
2023-02-02T06:18:46.015Z,9.80
2023-02-02T06:21:14.501Z,10.32
2023-02-02T06:23:45.727Z,11.60
2023-02-02T06:26:14.267Z,10.63
2023-02-02T06:28:42.736Z,8.20
2023-02-02T06:31:12.819Z,7.00
2023-02-02T06:33:41.187Z,6.63
2023-02-02T06:36:11.111Z,6.20
2023-02-02T06:38:41.663Z,5.90
2023-02-02T06:41:10.566Z,4.80
2023-02-02T06:43:38.981Z,6.32
2023-02-02T06:46:07.394Z,6.88
2023-02-02T06:48:35.767Z,6.97
2023-02-02T06:51:11.228Z,4.82
2023-02-02T06:53:40.902Z,5.47
2023-02-02T06:56:18.903Z,5.63
2023-02-02T06:58:47.369Z,5.53
2023-02-02T07:01:16.279Z,5.13
2023-02-02T07:03:44.840Z,4.95
2023-02-02T07:06:17.890Z,4.68
2023-02-02T07:09:01.068Z,5.63
2023-02-02T07:11:34.423Z,4.47
2023-02-02T07:14:06.550Z,4.70
2023-02-02T07:16:35.203Z,5.15
2023-02-02T07:19:05.919Z,5.22
2023-02-02T07:21:36.230Z,5.07
2023-02-02T07:24:16.249Z,5.03
2023-02-02T07:26:44.710Z,5.65
2023-02-02T07:29:17.145Z,6.70
2023-02-02T07:31:46.898Z,5.28
2023-02-02T07:34:15.327Z,5.55
2023-02-02T07:36:45.949Z,6.13
2023-02-02T07:39:18.403Z,5.85
2023-02-02T07:41:49.913Z,6.72
2023-02-02T07:44:31.103Z,7.72
2023-02-02T07:47:02.297Z,7.03
2023-02-02T07:49:30.743Z,6.60
2023-02-02T07:51:59.173Z,6.72
2023-02-02T07:54:29.374Z,7.75
2023-02-02T07:57:00.895Z,8.63
2023-02-02T07:59:32.133Z,7.40
2023-02-02T08:02:00.871Z,7.97
2023-02-02T08:04:33.503Z,7.63
2023-02-02T08:07:01.905Z,8.38
2023-02-02T08:09:33.206Z,8.10
2023-02-02T08:12:02.872Z,8.30
2023-02-02T08:14:32.600Z,7.95
2023-02-02T08:17:01.050Z,7.15
2023-02-02T08:19:29.403Z,7.88
2023-02-02T08:21:58.045Z,8.10
2023-02-02T08:24:27.200Z,7.00
2023-02-02T08:26:57.037Z,7.68
2023-02-02T08:29:25.668Z,8.07
2023-02-02T08:31:54.690Z,7.20
2023-02-02T08:34:23.083Z,6.80
2023-02-02T08:36:51.849Z,6.70
2023-02-02T08:39:20.313Z,6.50
2023-02-02T08:41:49.000Z,5.95
2023-02-02T08:44:18.878Z,6.50
2023-02-02T08:46:48.270Z,5.78
2023-02-02T08:49:17.056Z,6.05
2023-02-02T08:51:46.776Z,6.55
2023-02-02T08:54:15.285Z,5.50
2023-02-02T08:56:43.833Z,6.28
2023-02-02T08:59:12.345Z,6.75
2023-02-02T09:01:42.086Z,6.70
2023-02-02T09:04:17.329Z,6.85
2023-02-02T09:06:46.202Z,6.22
2023-02-02T09:09:17.099Z,7.05
2023-02-02T09:11:45.591Z,7.07
2023-02-02T09:14:15.364Z,7.78
2023-02-02T09:16:45.797Z,7.55
2023-02-02T09:19:14.625Z,9.35
2023-02-02T09:21:43.172Z,7.72
2023-02-02T09:24:13.352Z,8.48
2023-02-02T09:26:44.547Z,10.40
2023-02-02T09:29:16.452Z,10.57
2023-02-02T09:31:47.072Z,9.32
2023-02-02T09:34:16.636Z,9.90
2023-02-02T09:36:46.590Z,7.75
2023-02-02T09:39:16.861Z,7.78
2023-02-02T09:42:55.489Z,6.88
2023-02-02T09:45:29.581Z,6.80
2023-02-02T09:48:09.639Z,6.72
2023-02-02T09:50:47.417Z,6.28
2023-02-02T09:53:30.485Z,6.60
2023-02-02T09:56:01.936Z,5.80
2023-02-02T09:58:34.988Z,6.57
2023-02-02T10:01:07.459Z,4.75
2023-02-02T10:03:45.667Z,5.85
2023-02-02T10:06:27.913Z,5.68
2023-02-02T10:09:02.960Z,6.10
2023-02-02T10:11:37.456Z,6.00
2023-02-02T10:14:14.404Z,5.20
2023-02-02T10:16:43.254Z,5.57
2023-02-02T10:19:15.927Z,5.72
2023-02-02T10:21:52.975Z,7.03
2023-02-02T10:24:24.032Z,6.03
2023-02-02T10:26:55.312Z,6.05
2023-02-02T10:29:48.538Z,6.60
2023-02-02T10:32:23.726Z,6.30
2023-02-02T10:35:13.962Z,5.93
2023-02-02T10:37:51.459Z,6.32
2023-02-02T10:40:34.649Z,6.50
2023-02-02T10:43:44.292Z,7.13
2023-02-02T10:46:18.676Z,6.72
2023-02-02T10:48:49.234Z,6.28
2023-02-02T10:51:25.404Z,6.88
2023-02-02T10:54:01.229Z,6.70
2023-02-02T10:56:35.447Z,7.07
2023-02-02T10:59:07.402Z,7.60
2023-02-02T11:01:36.169Z,7.43
2023-02-02T11:04:21.986Z,7.25
2023-02-02T11:07:01.531Z,7.63
2023-02-02T11:09:38.525Z,7.38
2023-02-02T11:12:15.241Z,7.28
2023-02-02T11:14:48.480Z,7.78
2023-02-02T11:17:22.029Z,8.02
2023-02-02T11:19:51.414Z,8.57
2023-02-02T11:22:34.009Z,8.65
2023-02-02T11:25:06.243Z,7.60
2023-02-02T11:27:41.112Z,9.52
2023-02-02T11:30:24.205Z,10.07
2023-02-02T11:32:52.814Z,9.93
2023-02-02T11:35:23.495Z,10.57
2023-02-02T11:38:17.648Z,9.13
2023-02-02T11:40:47.603Z,10.27
2023-02-02T11:43:20.356Z,11.07
2023-02-02T11:45:55.995Z,11.63
2023-02-02T11:48:29.447Z,11.85
2023-02-02T11:50:59.785Z,10.73
2023-02-02T11:53:41.868Z,11.45
2023-02-02T11:56:20.013Z,11.23
2023-02-02T11:58:51.122Z,11.65
2023-02-02T12:01:26.958Z,10.57
2023-02-02T12:03:56.914Z,10.80
2023-02-02T12:06:27.003Z,11.95
2023-02-02T12:09:01.455Z,11.27
2023-02-02T12:11:42.053Z,11.10
2023-02-02T12:14:26.592Z,11.07
2023-02-02T12:17:05.352Z,10.95
2023-02-02T12:19:58.578Z,9.90
2023-02-02T12:22:46.431Z,10.15
2023-02-02T12:25:37.492Z,10.20
2023-02-02T12:28:13.743Z,12.23
2023-02-02T12:30:49.036Z,9.90
2023-02-02T12:33:26.945Z,10.63
2023-02-02T12:36:10.718Z,9.85
2023-02-02T12:39:06.306Z,9.40
2023-02-02T12:41:50.733Z,8.10
2023-02-02T12:44:27.881Z,7.60
2023-02-02T12:47:08.376Z,7.28
2023-02-02T12:49:52.712Z,7.00
2023-02-02T12:52:39.188Z,6.70
2023-02-02T12:55:23.383Z,6.43
2023-02-02T12:58:18.867Z,7.63
2023-02-02T13:01:07.063Z,6.20
2023-02-02T13:03:55.560Z,10.95
2023-02-02T13:06:55.030Z,7.18
2023-02-02T13:09:29.775Z,7.32
2023-02-02T13:12:04.108Z,7.20
2023-02-02T13:14:38.594Z,6.38
2023-02-02T13:17:11.036Z,6.95
2023-02-02T13:19:43.226Z,6.28
2023-02-02T13:22:17.849Z,6.85
2023-02-02T13:24:52.322Z,6.47
2023-02-02T13:27:23.166Z,6.32
2023-02-02T13:29:56.974Z,5.88
2023-02-02T13:32:31.705Z,7.93
2023-02-02T13:35:04.906Z,6.95
2023-02-02T13:37:41.099Z,7.40
2023-02-02T13:40:25.338Z,6.55
2023-02-02T13:43:00.607Z,6.68
2023-02-02T13:45:46.867Z,6.03
2023-02-02T13:48:31.183Z,6.10
2023-02-02T13:51:36.836Z,6.47
2023-02-02T13:54:45.557Z,6.32
2023-02-02T13:57:27.443Z,5.47
2023-02-02T14:00:04.620Z,6.80
2023-02-02T14:02:45.885Z,7.85
2023-02-02T14:05:24.344Z,7.05
2023-02-02T14:08:00.484Z,6.43
2023-02-02T14:10:35.145Z,6.30
2023-02-02T14:13:32.949Z,6.45
2023-02-02T14:16:05.543Z,6.32
2023-02-02T14:18:55.388Z,6.20
2023-02-02T14:24:54.107Z,7.22
2023-02-02T14:31:27.921Z,5.82
2023-02-02T14:34:36.890Z,5.97
2023-02-02T14:37:44.650Z,6.20
2023-02-02T14:40:44.887Z,5.45
2023-02-02T14:43:46.316Z,5.82
2023-02-02T14:46:38.038Z,5.60
2023-02-02T14:49:27.464Z,4.95
2023-02-02T14:52:09.890Z,6.75
2023-02-02T14:55:15.611Z,6.00
2023-02-02T15:00:56.314Z,6.63
2023-02-02T15:03:36.724Z,5.85
2023-02-02T15:06:34.692Z,6.00
2023-02-02T15:09:43.218Z,6.88
2023-02-02T15:12:24.103Z,6.85
2023-02-02T15:15:02.507Z,6.68
2023-02-02T15:17:41.319Z,4.75
2023-02-02T15:20:21.728Z,3.47
2023-02-02T15:22:56.822Z,3.58
2023-02-02T15:25:31.125Z,3.00
2023-02-02T15:28:09.074Z,3.60
2023-02-02T15:30:46.187Z,3.72
2023-02-02T15:33:28.367Z,4.55
2023-02-02T15:36:02.350Z,4.15
2023-02-02T15:38:35.245Z,5.30
2023-02-02T15:41:13.190Z,4.65
2023-02-02T15:43:44.234Z,5.25
2023-02-02T15:46:15.994Z,4.82
2023-02-02T15:48:44.601Z,4.95
2023-02-02T15:51:21.936Z,3.78
2023-02-02T15:53:52.914Z,4.57
2023-02-02T15:56:30.028Z,4.93
2023-02-02T15:59:01.899Z,4.80
2023-02-02T16:01:34.487Z,5.63
2023-02-02T16:04:16.400Z,5.45
2023-02-02T16:06:52.921Z,5.25
2023-02-02T16:09:29.702Z,5.90
2023-02-02T16:12:01.952Z,5.18
2023-02-02T16:14:34.340Z,5.55
2023-02-02T16:17:19.165Z,5.32
2023-02-02T16:19:52.469Z,5.25
2023-02-02T16:22:25.559Z,4.50
2023-02-02T16:24:59.332Z,4.30
2023-02-02T16:27:32.946Z,4.78
2023-02-02T16:30:22.162Z,4.80
2023-02-02T16:32:50.600Z,4.70
2023-02-02T16:35:32.981Z,5.10
2023-02-02T16:38:15.563Z,5.50
2023-02-02T16:40:49.974Z,6.43
2023-02-02T16:43:20.471Z,5.55
2023-02-02T16:46:11.799Z,5.00
2023-02-02T16:48:48.423Z,4.88
2023-02-02T16:51:28.526Z,6.18
2023-02-02T16:54:08.581Z,6.43
2023-02-02T16:56:46.621Z,6.53
2023-02-02T16:59:34.805Z,5.70
2023-02-02T17:02:27.915Z,6.07
2023-02-02T17:05:06.154Z,7.10
2023-02-02T17:07:37.266Z,5.68
2023-02-02T17:10:21.641Z,7.35
2023-02-02T17:12:54.658Z,6.78
2023-02-02T17:15:34.618Z,6.00
2023-02-02T17:18:23.400Z,6.03
2023-02-02T17:21:10.269Z,6.10
2023-02-02T17:23:43.189Z,6.20
2023-02-02T17:26:23.253Z,6.40
2023-02-02T17:29:05.603Z,6.55
2023-02-02T17:31:51.625Z,7.32
2023-02-02T17:35:17.838Z,7.35
2023-02-02T17:38:12.199Z,8.10
2023-02-02T17:41:08.765Z,9.00
2023-02-02T17:43:43.372Z,9.60
2023-02-02T17:46:19.712Z,11.32
2023-02-02T17:49:18.904Z,9.50
2023-02-02T17:52:00.964Z,8.65
2023-02-02T17:54:42.614Z,9.43
2023-02-02T17:57:15.612Z,9.18
2023-02-02T17:59:48.745Z,9.73
2023-02-02T18:03:15.953Z,9.63
2023-02-02T18:06:14.194Z,10.38
2023-02-02T18:08:49.073Z,7.45
2023-02-02T18:15:03.090Z,7.93
2023-02-02T18:17:43.392Z,9.10
2023-02-02T18:20:29.099Z,7.57
2023-02-02T18:23:21.353Z,7.60
2023-02-02T18:27:16.560Z,8.57
2023-02-02T18:30:22.053Z,8.15
2023-02-02T18:32:59.702Z,8.95
2023-02-02T18:35:28.622Z,7.88
2023-02-02T18:37:59.670Z,7.97
2023-02-02T18:40:28.169Z,7.60
2023-02-02T18:43:18.690Z,7.30
2023-02-02T18:46:04.718Z,6.90
2023-02-02T18:48:45.468Z,8.10
2023-02-02T18:51:16.821Z,7.60
2023-02-02T18:53:45.996Z,7.68
2023-02-02T18:56:21.056Z,6.97
2023-02-02T18:58:49.617Z,7.85
2023-02-02T19:01:23.427Z,7.40
2023-02-02T19:03:55.333Z,7.93
2023-02-02T19:06:54.121Z,9.25
2023-02-02T19:09:33.847Z,10.55
2023-02-02T19:12:03.700Z,11.05
2023-02-02T19:14:42.498Z,12.25
2023-02-02T19:17:22.504Z,12.82
2023-02-02T19:19:53.248Z,12.43
2023-02-02T19:22:23.693Z,11.82
2023-02-02T19:24:53.042Z,11.50
2023-02-02T19:27:27.138Z,11.30
2023-02-02T19:30:05.962Z,9.50
2023-02-02T19:32:36.452Z,8.65
2023-02-02T19:35:50.705Z,7.97
2023-02-02T19:38:36.096Z,8.57
2023-02-02T19:41:07.610Z,7.82
2023-02-02T19:43:47.666Z,7.85
2023-02-02T19:46:22.772Z,7.00
2023-02-02T19:49:02.399Z,8.55
2023-02-02T19:51:59.565Z,7.68
2023-02-02T19:54:32.771Z,7.88
2023-02-02T19:57:02.901Z,7.25
2023-02-02T19:59:38.745Z,7.03
2023-02-02T20:02:39.575Z,7.97
2023-02-02T20:05:18.580Z,5.72
2023-02-02T20:08:08.249Z,7.80
2023-02-02T20:10:42.635Z,7.47
2023-02-02T20:13:20.285Z,7.30
2023-02-02T20:16:04.792Z,8.43
2023-02-02T20:18:41.664Z,7.38
2023-02-02T20:21:21.416Z,7.35
2023-02-02T20:23:51.817Z,7.15
2023-02-02T20:26:27.046Z,8.30
2023-02-02T20:28:58.743Z,8.48
2023-02-02T20:31:35.889Z,7.80
2023-02-02T20:34:17.592Z,7.22
2023-02-02T20:36:46.116Z,6.85
2023-02-02T20:39:30.426Z,8.25
2023-02-02T20:42:03.517Z,7.22
2023-02-02T20:44:36.150Z,7.70
2023-02-02T20:47:07.072Z,7.50
2023-02-02T20:49:36.298Z,7.43
2023-02-02T20:52:08.027Z,7.22
2023-02-02T20:54:39.576Z,8.10
2023-02-02T20:57:08.086Z,7.57
2023-02-02T20:59:36.911Z,8.05
2023-02-02T21:02:07.209Z,9.25
2023-02-02T21:04:35.915Z,8.35
2023-02-02T21:07:04.161Z,9.30
2023-02-02T21:09:32.596Z,8.85
2023-02-02T21:12:02.447Z,9.02
2023-02-02T21:14:30.790Z,8.70
2023-02-02T21:17:17.403Z,8.38
2023-02-02T21:19:46.146Z,8.38
2023-02-02T21:22:14.990Z,9.30
2023-02-02T21:24:43.378Z,9.15
2023-02-02T21:27:13.197Z,8.60
2023-02-02T21:29:43.727Z,8.63
2023-02-02T21:32:17.096Z,8.18
2023-02-02T21:34:45.431Z,8.77
2023-02-02T21:37:16.800Z,9.20
2023-02-02T21:39:48.708Z,7.75
2023-02-02T21:42:20.391Z,7.78
2023-02-02T21:44:54.322Z,8.70
2023-02-02T21:47:33.733Z,7.95
2023-02-02T21:50:15.868Z,8.48
2023-02-02T21:52:44.461Z,7.63
2023-02-02T21:55:35.566Z,9.80
2023-02-02T21:58:18.973Z,8.48
2023-02-02T22:00:47.814Z,8.23
2023-02-02T22:03:34.712Z,9.20
2023-02-02T22:06:26.651Z,9.90
2023-02-02T22:09:09.496Z,9.60
2023-02-02T22:11:47.792Z,8.40
2023-02-02T22:14:38.930Z,9.13
2023-02-02T22:17:21.821Z,9.93
2023-02-02T22:19:53.958Z,9.90
2023-02-02T22:22:25.853Z,9.35
2023-02-02T22:25:04.748Z,10.35
2023-02-02T22:27:43.128Z,8.88
2023-02-02T22:30:24.834Z,9.77
2023-02-02T22:32:53.649Z,8.23
2023-02-02T22:35:22.148Z,8.48
2023-02-02T22:37:54.479Z,8.15
2023-02-02T22:40:25.240Z,7.75
2023-02-02T22:42:55.893Z,7.93
2023-02-02T22:45:26.844Z,7.20
2023-02-02T22:47:55.298Z,8.45
2023-02-02T22:50:26.796Z,7.93
2023-02-02T22:52:55.379Z,8.02
2023-02-02T22:55:23.943Z,7.65
2023-02-02T22:57:52.293Z,7.88
2023-02-02T23:00:22.742Z,8.13
2023-02-02T23:02:53.063Z,8.27
2023-02-02T23:05:23.045Z,7.78
2023-02-02T23:07:51.956Z,7.97
2023-02-02T23:10:22.515Z,8.00
2023-02-02T23:12:53.630Z,8.13
2023-02-02T23:15:22.680Z,8.73
2023-02-02T23:17:52.509Z,9.93
2023-02-02T23:20:21.563Z,9.23
2023-02-02T23:22:50.243Z,9.10
2023-02-02T23:25:19.430Z,8.85
2023-02-02T23:27:47.994Z,9.45
2023-02-02T23:30:17.626Z,10.38
2023-02-02T23:32:46.102Z,9.93
2023-02-02T23:35:15.794Z,9.48
2023-02-02T23:37:44.117Z,9.70
2023-02-02T23:40:13.731Z,9.02
2023-02-02T23:42:42.192Z,9.00
2023-02-02T23:45:11.360Z,9.07
2023-02-02T23:47:40.118Z,9.15
2023-02-02T23:50:10.227Z,9.68
2023-02-02T23:52:40.267Z,9.93
2023-02-02T23:55:10.179Z,8.75
2023-02-02T23:57:39.533Z,8.05
